sensor_id;sensor_type;location;lat;lon;timestamp;P1;durP1;ratioP1;P2;durP2;ratioP2
84517;SDS011;74754;43.386;0.044;2024-02-16T07:55:08;2.35;;;0.95;;
84517;SDS011;74754;43.386;0.044;2024-02-16T07:57:34;2.33;;;0.93;;
84517;SDS011;74754;43.386;0.044;2024-02-16T08:00:01;2.75;;;1.20;;
84517;SDS011;74754;43.386;0.044;2024-02-16T08:02:28;5.78;;;1.02;;
84517;SDS011;74754;43.386;0.044;2024-02-16T08:07:20;6.00;;;1.50;;
84517;SDS011;74754;43.386;0.044;2024-02-16T08:09:47;4.68;;;4.00;;
84517;SDS011;74754;43.386;0.044;2024-02-16T08:12:14;5.22;;;2.75;;
84517;SDS011;74754;43.386;0.044;2024-02-16T08:14:40;7.78;;;2.30;;
84517;SDS011;74754;43.386;0.044;2024-02-16T08:19:33;2.13;;;0.80;;
84517;SDS011;74754;43.386;0.044;2024-02-16T08:22:00;2.50;;;1.20;;
84517;SDS011;74754;43.386;0.044;2024-02-16T08:24:26;3.10;;;1.10;;
84517;SDS011;74754;43.386;0.044;2024-02-16T08:26:53;4.13;;;1.60;;
84517;SDS011;74754;43.386;0.044;2024-02-16T08:29:19;6.97;;;1.60;;
84517;SDS011;74754;43.386;0.044;2024-02-16T08:31:47;3.35;;;1.58;;
84517;SDS011;74754;43.386;0.044;2024-02-16T08:34:13;1.33;;;0.98;;
84517;SDS011;74754;43.386;0.044;2024-02-16T08:36:43;3.05;;;0.90;;
84517;SDS011;74754;43.386;0.044;2024-02-16T08:39:09;2.88;;;1.10;;
84517;SDS011;74754;43.386;0.044;2024-02-16T08:41:37;5.25;;;2.10;;
84517;SDS011;74754;43.386;0.044;2024-02-16T08:44:03;4.03;;;1.40;;
84517;SDS011;74754;43.386;0.044;2024-02-16T08:46:30;3.20;;;1.38;;
84517;SDS011;74754;43.386;0.044;2024-02-16T08:48:56;3.53;;;1.33;;
84517;SDS011;74754;43.386;0.044;2024-02-16T08:51:22;4.32;;;0.93;;
84517;SDS011;74754;43.386;0.044;2024-02-16T08:53:48;2.75;;;1.40;;
84517;SDS011;74754;43.386;0.044;2024-02-16T08:58:41;5.25;;;1.35;;
84517;SDS011;74754;43.386;0.044;2024-02-16T09:01:07;2.78;;;1.45;;
84517;SDS011;74754;43.386;0.044;2024-02-16T09:03:33;2.60;;;0.82;;
84517;SDS011;74754;43.386;0.044;2024-02-16T09:06:03;2.22;;;1.10;;
84517;SDS011;74754;43.386;0.044;2024-02-16T09:08:29;5.60;;;1.10;;
84517;SDS011;74754;43.386;0.044;2024-02-16T09:10:59;3.75;;;1.38;;
84517;SDS011;74754;43.386;0.044;2024-02-16T09:13:25;6.32;;;2.28;;
84517;SDS011;74754;43.386;0.044;2024-02-16T09:15:51;5.20;;;1.42;;
84517;SDS011;74754;43.386;0.044;2024-02-16T09:18:17;7.60;;;2.22;;
84517;SDS011;74754;43.386;0.044;2024-02-16T09:23:09;9.25;;;3.95;;
84517;SDS011;74754;43.386;0.044;2024-02-16T09:25:35;4.10;;;2.25;;
84517;SDS011;74754;43.386;0.044;2024-02-16T09:28:02;3.25;;;1.70;;
84517;SDS011;74754;43.386;0.044;2024-02-16T09:30:28;4.47;;;1.42;;
84517;SDS011;74754;43.386;0.044;2024-02-16T09:32:54;1.58;;;1.10;;
84517;SDS011;74754;43.386;0.044;2024-02-16T09:35:20;6.20;;;1.13;;
84517;SDS011;74754;43.386;0.044;2024-02-16T09:37:46;4.63;;;1.15;;
84517;SDS011;74754;43.386;0.044;2024-02-16T09:40:12;16.30;;;1.13;;
84517;SDS011;74754;43.386;0.044;2024-02-16T09:45:08;6.38;;;2.70;;
84517;SDS011;74754;43.386;0.044;2024-02-16T09:47:37;6.35;;;1.27;;
84517;SDS011;74754;43.386;0.044;2024-02-16T09:50:04;4.90;;;1.73;;
84517;SDS011;74754;43.386;0.044;2024-02-16T09:52:31;6.50;;;1.63;;
84517;SDS011;74754;43.386;0.044;2024-02-16T09:54:58;4.05;;;1.10;;
84517;SDS011;74754;43.386;0.044;2024-02-16T09:57:24;1.92;;;0.68;;
84517;SDS011;74754;43.386;0.044;2024-02-16T09:59:50;3.70;;;0.80;;
84517;SDS011;74754;43.386;0.044;2024-02-16T10:02:16;4.03;;;0.95;;
84517;SDS011;74754;43.386;0.044;2024-02-16T10:04:42;3.60;;;3.30;;
84517;SDS011;74754;43.386;0.044;2024-02-16T10:07:08;3.15;;;2.47;;
84517;SDS011;74754;43.386;0.044;2024-02-16T10:09:34;4.00;;;0.90;;
84517;SDS011;74754;43.386;0.044;2024-02-16T10:12:01;1.67;;;0.60;;
84517;SDS011;74754;43.386;0.044;2024-02-16T10:17:00;4.43;;;4.10;;
84517;SDS011;74754;43.386;0.044;2024-02-16T10:19:27;7.40;;;5.00;;
84517;SDS011;74754;43.386;0.044;2024-02-16T10:22:04;7.03;;;3.45;;
84517;SDS011;74754;43.386;0.044;2024-02-16T10:24:32;4.38;;;3.20;;
84517;SDS011;74754;43.386;0.044;2024-02-16T10:26:58;5.10;;;1.10;;
84517;SDS011;74754;43.386;0.044;2024-02-16T10:29:24;4.78;;;4.38;;
84517;SDS011;74754;43.386;0.044;2024-02-16T10:31:53;4.50;;;2.03;;
84517;SDS011;74754;43.386;0.044;2024-02-16T10:36:45;1.15;;;0.80;;
84517;SDS011;74754;43.386;0.044;2024-02-16T10:39:11;3.60;;;3.30;;
84517;SDS011;74754;43.386;0.044;2024-02-16T10:41:40;3.70;;;2.75;;
84517;SDS011;74754;43.386;0.044;2024-02-16T10:44:07;2.70;;;0.90;;
84517;SDS011;74754;43.386;0.044;2024-02-16T10:46:33;2.33;;;1.38;;
84517;SDS011;74754;43.386;0.044;2024-02-16T10:49:00;3.85;;;2.25;;
84517;SDS011;74754;43.386;0.044;2024-02-16T10:53:52;3.88;;;1.20;;
84517;SDS011;74754;43.386;0.044;2024-02-16T10:56:32;2.95;;;1.55;;
84517;SDS011;74754;43.386;0.044;2024-02-16T10:59:02;8.93;;;1.92;;
84517;SDS011;74754;43.386;0.044;2024-02-16T11:01:31;4.90;;;1.10;;
84517;SDS011;74754;43.386;0.044;2024-02-16T11:04:00;2.83;;;1.55;;
84517;SDS011;74754;43.386;0.044;2024-02-16T11:06:27;1.27;;;0.50;;
84517;SDS011;74754;43.386;0.044;2024-02-16T11:08:53;1.60;;;1.33;;
84517;SDS011;74754;43.386;0.044;2024-02-16T11:11:23;1.63;;;0.52;;
84517;SDS011;74754;43.386;0.044;2024-02-16T11:13:49;0.90;;;0.75;;
84517;SDS011;74754;43.386;0.044;2024-02-16T11:16:15;1.50;;;0.93;;
84517;SDS011;74754;43.386;0.044;2024-02-16T11:18:45;5.47;;;1.10;;
84517;SDS011;74754;43.386;0.044;2024-02-16T11:21:15;2.20;;;0.80;;
84517;SDS011;74754;43.386;0.044;2024-02-16T11:23:42;2.20;;;0.82;;
84517;SDS011;74754;43.386;0.044;2024-02-16T11:26:12;1.40;;;0.45;;
84517;SDS011;74754;43.386;0.044;2024-02-16T11:28:39;1.55;;;0.75;;
84517;SDS011;74754;43.386;0.044;2024-02-16T11:31:06;1.90;;;1.52;;
84517;SDS011;74754;43.386;0.044;2024-02-16T11:33:32;3.85;;;3.38;;
84517;SDS011;74754;43.386;0.044;2024-02-16T11:36:02;2.17;;;1.85;;
84517;SDS011;74754;43.386;0.044;2024-02-16T11:38:32;3.20;;;1.15;;
84517;SDS011;74754;43.386;0.044;2024-02-16T11:41:03;2.58;;;0.50;;
84517;SDS011;74754;43.386;0.044;2024-02-16T11:43:29;3.90;;;0.70;;
84517;SDS011;74754;43.386;0.044;2024-02-16T11:45:57;4.25;;;0.77;;
84517;SDS011;74754;43.386;0.044;2024-02-16T11:48:24;1.60;;;0.63;;
84517;SDS011;74754;43.386;0.044;2024-02-16T11:50:58;1.02;;;0.60;;
84517;SDS011;74754;43.386;0.044;2024-02-16T11:53:24;3.30;;;0.80;;
84517;SDS011;74754;43.386;0.044;2024-02-16T11:55:51;0.98;;;0.32;;
84517;SDS011;74754;43.386;0.044;2024-02-16T11:58:17;6.93;;;0.65;;
84517;SDS011;74754;43.386;0.044;2024-02-16T12:00:44;1.27;;;0.45;;
84517;SDS011;74754;43.386;0.044;2024-02-16T12:03:10;1.15;;;0.55;;
84517;SDS011;74754;43.386;0.044;2024-02-16T12:05:37;0.95;;;0.55;;
84517;SDS011;74754;43.386;0.044;2024-02-16T12:08:05;3.53;;;0.95;;
84517;SDS011;74754;43.386;0.044;2024-02-16T12:10:31;7.72;;;0.50;;
84517;SDS011;74754;43.386;0.044;2024-02-16T12:12:58;1.60;;;0.93;;
84517;SDS011;74754;43.386;0.044;2024-02-16T12:15:24;2.53;;;1.38;;
84517;SDS011;74754;43.386;0.044;2024-02-16T12:17:59;1.85;;;1.17;;
84517;SDS011;74754;43.386;0.044;2024-02-16T12:20:26;1.90;;;1.75;;
84517;SDS011;74754;43.386;0.044;2024-02-16T12:22:52;3.08;;;2.83;;
84517;SDS011;74754;43.386;0.044;2024-02-16T12:25:18;1.55;;;0.68;;
84517;SDS011;74754;43.386;0.044;2024-02-16T12:27:44;4.10;;;0.82;;
84517;SDS011;74754;43.386;0.044;2024-02-16T12:30:10;3.55;;;0.40;;
84517;SDS011;74754;43.386;0.044;2024-02-16T12:32:37;3.03;;;0.70;;
84517;SDS011;74754;43.386;0.044;2024-02-16T12:35:03;1.73;;;0.60;;
84517;SDS011;74754;43.386;0.044;2024-02-16T12:37:30;2.78;;;0.50;;
84517;SDS011;74754;43.386;0.044;2024-02-16T12:39:56;9.95;;;0.80;;
84517;SDS011;74754;43.386;0.044;2024-02-16T12:42:22;1.70;;;1.10;;
84517;SDS011;74754;43.386;0.044;2024-02-16T12:44:49;7.63;;;0.70;;
84517;SDS011;74754;43.386;0.044;2024-02-16T12:47:15;1.95;;;0.80;;
84517;SDS011;74754;43.386;0.044;2024-02-16T12:49:41;4.70;;;1.00;;
84517;SDS011;74754;43.386;0.044;2024-02-16T12:52:07;2.00;;;1.40;;
84517;SDS011;74754;43.386;0.044;2024-02-16T12:54:33;6.53;;;5.95;;
84517;SDS011;74754;43.386;0.044;2024-02-16T12:59:25;1.65;;;1.25;;
84517;SDS011;74754;43.386;0.044;2024-02-16T13:01:51;3.10;;;2.90;;
84517;SDS011;74754;43.386;0.044;2024-02-16T13:06:47;2.28;;;1.10;;
84517;SDS011;74754;43.386;0.044;2024-02-16T13:09:18;4.10;;;3.78;;
84517;SDS011;74754;43.386;0.044;2024-02-16T13:11:44;1.42;;;0.90;;
84517;SDS011;74754;43.386;0.044;2024-02-16T13:16:36;2.92;;;1.42;;
84517;SDS011;74754;43.386;0.044;2024-02-16T13:19:02;4.45;;;1.30;;
84517;SDS011;74754;43.386;0.044;2024-02-16T13:21:28;10.30;;;9.48;;
84517;SDS011;74754;43.386;0.044;2024-02-16T13:23:54;11.93;;;9.07;;
84517;SDS011;74754;43.386;0.044;2024-02-16T13:26:21;7.40;;;5.72;;
84517;SDS011;74754;43.386;0.044;2024-02-16T13:28:47;3.67;;;3.38;;
84517;SDS011;74754;43.386;0.044;2024-02-16T13:31:15;4.65;;;4.25;;
84517;SDS011;74754;43.386;0.044;2024-02-16T13:33:41;7.28;;;1.20;;
84517;SDS011;74754;43.386;0.044;2024-02-16T13:36:07;4.78;;;1.83;;
84517;SDS011;74754;43.386;0.044;2024-02-16T13:38:34;3.78;;;1.05;;
84517;SDS011;74754;43.386;0.044;2024-02-16T13:41:00;4.43;;;1.17;;
84517;SDS011;74754;43.386;0.044;2024-02-16T13:45:53;12.88;;;5.88;;
84517;SDS011;74754;43.386;0.044;2024-02-16T13:48:21;9.98;;;2.72;;
84517;SDS011;74754;43.386;0.044;2024-02-16T13:53:13;7.05;;;1.80;;
84517;SDS011;74754;43.386;0.044;2024-02-16T13:55:40;8.77;;;2.72;;
84517;SDS011;74754;43.386;0.044;2024-02-16T13:58:06;4.30;;;1.35;;
84517;SDS011;74754;43.386;0.044;2024-02-16T14:00:33;66.03;;;31.83;;
84517;SDS011;74754;43.386;0.044;2024-02-16T14:02:59;60.08;;;35.30;;
84517;SDS011;74754;43.386;0.044;2024-02-16T14:07:51;67.47;;;28.70;;
84517;SDS011;74754;43.386;0.044;2024-02-16T14:12:47;38.70;;;22.23;;
84517;SDS011;74754;43.386;0.044;2024-02-16T14:15:13;20.20;;;10.80;;
84517;SDS011;74754;43.386;0.044;2024-02-16T14:17:43;20.85;;;11.82;;
84517;SDS011;74754;43.386;0.044;2024-02-16T14:20:10;6.60;;;4.30;;
84517;SDS011;74754;43.386;0.044;2024-02-16T14:22:36;12.32;;;4.30;;
84517;SDS011;74754;43.386;0.044;2024-02-16T14:27:28;12.20;;;3.78;;
84517;SDS011;74754;43.386;0.044;2024-02-16T14:29:55;19.83;;;7.18;;
84517;SDS011;74754;43.386;0.044;2024-02-16T14:34:47;17.10;;;11.40;;
84517;SDS011;74754;43.386;0.044;2024-02-16T14:37:13;46.38;;;27.55;;
84517;SDS011;74754;43.386;0.044;2024-02-16T14:42:05;77.38;;;43.65;;
84517;SDS011;74754;43.386;0.044;2024-02-16T14:46:57;100.85;;;63.10;;
84517;SDS011;74754;43.386;0.044;2024-02-16T14:49:23;39.30;;;20.65;;
84517;SDS011;74754;43.386;0.044;2024-02-16T14:51:51;13.57;;;5.07;;
84517;SDS011;74754;43.386;0.044;2024-02-16T14:56:43;10.68;;;5.13;;
84517;SDS011;74754;43.386;0.044;2024-02-16T14:59:09;8.02;;;3.28;;
84517;SDS011;74754;43.386;0.044;2024-02-16T15:01:36;23.63;;;3.33;;
84517;SDS011;74754;43.386;0.044;2024-02-16T15:04:05;9.52;;;3.33;;
84517;SDS011;74754;43.386;0.044;2024-02-16T15:06:31;11.93;;;2.95;;
84517;SDS011;74754;43.386;0.044;2024-02-16T15:08:58;11.63;;;4.45;;
84517;SDS011;74754;43.386;0.044;2024-02-16T15:11:25;10.90;;;4.57;;
84517;SDS011;74754;43.386;0.044;2024-02-16T15:13:52;17.25;;;2.97;;
84517;SDS011;74754;43.386;0.044;2024-02-16T15:16:18;11.57;;;3.30;;
84517;SDS011;74754;43.386;0.044;2024-02-16T15:18:46;18.50;;;4.10;;
84517;SDS011;74754;43.386;0.044;2024-02-16T15:23:38;13.70;;;2.88;;
84517;SDS011;74754;43.386;0.044;2024-02-16T15:26:04;15.27;;;2.97;;
84517;SDS011;74754;43.386;0.044;2024-02-16T15:28:33;14.82;;;3.00;;
84517;SDS011;74754;43.386;0.044;2024-02-16T15:30:59;5.63;;;2.92;;
84517;SDS011;74754;43.386;0.044;2024-02-16T15:33:25;12.07;;;2.78;;
84517;SDS011;74754;43.386;0.044;2024-02-16T15:35:51;11.18;;;3.10;;
84517;SDS011;74754;43.386;0.044;2024-02-16T15:40:43;15.82;;;3.38;;
84517;SDS011;74754;43.386;0.044;2024-02-16T15:45:37;13.27;;;2.75;;
84517;SDS011;74754;43.386;0.044;2024-02-16T15:48:09;13.88;;;3.13;;
84517;SDS011;74754;43.386;0.044;2024-02-16T15:50:37;10.70;;;2.80;;
84517;SDS011;74754;43.386;0.044;2024-02-16T15:53:04;16.70;;;2.80;;
84517;SDS011;74754;43.386;0.044;2024-02-16T15:55:30;13.98;;;2.60;;
84517;SDS011;74754;43.386;0.044;2024-02-16T15:57:57;10.57;;;2.67;;
84517;SDS011;74754;43.386;0.044;2024-02-16T16:00:23;11.75;;;3.10;;
84517;SDS011;74754;43.386;0.044;2024-02-16T16:02:50;17.30;;;3.47;;
84517;SDS011;74754;43.386;0.044;2024-02-16T16:07:42;13.10;;;4.28;;
84517;SDS011;74754;43.386;0.044;2024-02-16T16:12:35;14.98;;;4.05;;
84517;SDS011;74754;43.386;0.044;2024-02-16T16:17:27;12.85;;;3.03;;
84517;SDS011;74754;43.386;0.044;2024-02-16T16:19:54;20.67;;;3.45;;
84517;SDS011;74754;43.386;0.044;2024-02-16T16:22:20;30.20;;;4.95;;
84517;SDS011;74754;43.386;0.044;2024-02-16T16:27:12;17.25;;;4.05;;
84517;SDS011;74754;43.386;0.044;2024-02-16T16:29:39;26.50;;;4.63;;
84517;SDS011;74754;43.386;0.044;2024-02-16T16:34:31;17.67;;;5.15;;
84517;SDS011;74754;43.386;0.044;2024-02-16T16:36:57;23.00;;;4.60;;
84517;SDS011;74754;43.386;0.044;2024-02-16T16:39:23;21.73;;;3.22;;
84517;SDS011;74754;43.386;0.044;2024-02-16T16:41:52;20.98;;;3.42;;
84517;SDS011;74754;43.386;0.044;2024-02-16T16:44:19;18.02;;;3.25;;
84517;SDS011;74754;43.386;0.044;2024-02-16T16:46:47;28.15;;;3.78;;
84517;SDS011;74754;43.386;0.044;2024-02-16T16:49:14;21.80;;;2.97;;
84517;SDS011;74754;43.386;0.044;2024-02-16T16:51:41;13.40;;;3.70;;
84517;SDS011;74754;43.386;0.044;2024-02-16T16:56:33;21.13;;;3.63;;
84517;SDS011;74754;43.386;0.044;2024-02-16T16:58:59;15.25;;;3.05;;
84517;SDS011;74754;43.386;0.044;2024-02-16T17:01:26;16.85;;;4.05;;
84517;SDS011;74754;43.386;0.044;2024-02-16T17:03:53;17.55;;;3.33;;
84517;SDS011;74754;43.386;0.044;2024-02-16T17:06:19;22.33;;;3.20;;
84517;SDS011;74754;43.386;0.044;2024-02-16T17:08:45;14.10;;;2.72;;
84517;SDS011;74754;43.386;0.044;2024-02-16T17:11:11;16.42;;;3.03;;
84517;SDS011;74754;43.386;0.044;2024-02-16T17:16:04;15.27;;;3.33;;
84517;SDS011;74754;43.386;0.044;2024-02-16T17:21:00;32.20;;;4.13;;
84517;SDS011;74754;43.386;0.044;2024-02-16T17:23:27;19.90;;;3.85;;
84517;SDS011;74754;43.386;0.044;2024-02-16T17:25:53;13.43;;;4.07;;
84517;SDS011;74754;43.386;0.044;2024-02-16T17:28:20;19.73;;;3.25;;
84517;SDS011;74754;43.386;0.044;2024-02-16T17:33:13;19.45;;;3.70;;
84517;SDS011;74754;43.386;0.044;2024-02-16T17:35:40;12.38;;;3.33;;
84517;SDS011;74754;43.386;0.044;2024-02-16T17:38:07;20.73;;;3.25;;
84517;SDS011;74754;43.386;0.044;2024-02-16T17:40:34;11.88;;;2.90;;
84517;SDS011;74754;43.386;0.044;2024-02-16T17:45:26;120.53;;;54.00;;
84517;SDS011;74754;43.386;0.044;2024-02-16T17:47:52;36.90;;;4.57;;
84517;SDS011;74754;43.386;0.044;2024-02-16T17:50:18;13.88;;;3.00;;
84517;SDS011;74754;43.386;0.044;2024-02-16T17:52:44;14.82;;;4.00;;
84517;SDS011;74754;43.386;0.044;2024-02-16T17:55:10;22.00;;;3.47;;
84517;SDS011;74754;43.386;0.044;2024-02-16T17:57:36;29.48;;;3.47;;
84517;SDS011;74754;43.386;0.044;2024-02-16T18:00:03;15.23;;;3.42;;
84517;SDS011;74754;43.386;0.044;2024-02-16T18:02:30;17.73;;;4.22;;
84517;SDS011;74754;43.386;0.044;2024-02-16T18:07:22;17.55;;;3.00;;
84517;SDS011;74754;43.386;0.044;2024-02-16T18:09:48;20.02;;;3.65;;
84517;SDS011;74754;43.386;0.044;2024-02-16T18:14:42;28.63;;;5.28;;
84517;SDS011;74754;43.386;0.044;2024-02-16T18:17:09;18.45;;;4.70;;
84517;SDS011;74754;43.386;0.044;2024-02-16T18:19:40;27.70;;;3.90;;
84517;SDS011;74754;43.386;0.044;2024-02-16T18:22:07;9.70;;;3.03;;
84517;SDS011;74754;43.386;0.044;2024-02-16T18:26:59;17.83;;;3.83;;
84517;SDS011;74754;43.386;0.044;2024-02-16T18:29:26;10.27;;;3.50;;
84517;SDS011;74754;43.386;0.044;2024-02-16T18:34:18;23.63;;;10.20;;
84517;SDS011;74754;43.386;0.044;2024-02-16T18:36:44;46.90;;;13.48;;
84517;SDS011;74754;43.386;0.044;2024-02-16T18:39:10;17.75;;;3.30;;
84517;SDS011;74754;43.386;0.044;2024-02-16T18:41:37;11.00;;;2.83;;
84517;SDS011;74754;43.386;0.044;2024-02-16T18:44:06;11.48;;;2.58;;
84517;SDS011;74754;43.386;0.044;2024-02-16T18:49:01;12.73;;;1.58;;
84517;SDS011;74754;43.386;0.044;2024-02-16T18:51:28;10.63;;;2.20;;
84517;SDS011;74754;43.386;0.044;2024-02-16T18:53:54;15.77;;;2.05;;
84517;SDS011;74754;43.386;0.044;2024-02-16T18:56:20;11.40;;;2.38;;
84517;SDS011;74754;43.386;0.044;2024-02-16T18:58:46;7.45;;;1.48;;
84517;SDS011;74754;43.386;0.044;2024-02-16T19:01:15;19.48;;;2.30;;
84517;SDS011;74754;43.386;0.044;2024-02-16T19:03:41;9.23;;;2.80;;
84517;SDS011;74754;43.386;0.044;2024-02-16T19:06:07;12.20;;;2.20;;
84517;SDS011;74754;43.386;0.044;2024-02-16T19:08:34;12.00;;;1.92;;
84517;SDS011;74754;43.386;0.044;2024-02-16T19:13:28;10.63;;;2.65;;
84517;SDS011;74754;43.386;0.044;2024-02-16T19:15:54;15.60;;;2.60;;
84517;SDS011;74754;43.386;0.044;2024-02-16T19:18:21;18.40;;;5.03;;
84517;SDS011;74754;43.386;0.044;2024-02-16T19:20:47;13.95;;;4.05;;
84517;SDS011;74754;43.386;0.044;2024-02-16T19:23:15;19.10;;;4.50;;
84517;SDS011;74754;43.386;0.044;2024-02-16T19:25:41;16.15;;;5.22;;
84517;SDS011;74754;43.386;0.044;2024-02-16T19:28:07;15.10;;;5.80;;
84517;SDS011;74754;43.386;0.044;2024-02-16T19:30:35;13.57;;;3.83;;
84517;SDS011;74754;43.386;0.044;2024-02-16T19:33:01;36.42;;;18.17;;
84517;SDS011;74754;43.386;0.044;2024-02-16T19:35:28;42.78;;;17.35;;
84517;SDS011;74754;43.386;0.044;2024-02-16T19:37:54;49.55;;;19.52;;
84517;SDS011;74754;43.386;0.044;2024-02-16T19:40:20;131.85;;;55.25;;
84517;SDS011;74754;43.386;0.044;2024-02-16T19:42:46;126.45;;;49.38;;
84517;SDS011;74754;43.386;0.044;2024-02-16T19:45:12;81.80;;;32.45;;
84517;SDS011;74754;43.386;0.044;2024-02-16T19:47:39;14.05;;;4.57;;
84517;SDS011;74754;43.386;0.044;2024-02-16T19:50:06;14.23;;;3.40;;
84517;SDS011;74754;43.386;0.044;2024-02-16T19:52:33;19.27;;;5.10;;
84517;SDS011;74754;43.386;0.044;2024-02-16T19:57:26;22.77;;;4.93;;
84517;SDS011;74754;43.386;0.044;2024-02-16T19:59:52;17.70;;;4.03;;
84517;SDS011;74754;43.386;0.044;2024-02-16T20:02:20;17.08;;;3.75;;
